Time;durP1;ratioP1;P1;durP2;ratioP2;P2;SDS_P1;SDS_P2;PMS_P1;PMS_P2;Temp;Humidity;BMP_temperature;BMP_pressure;BME280_temperature;BME280_humidity;BME280_pressure;Samples;Min_cycle;Max_cycle;Signal;HPM_P1;HPM_P2
2021/12/22 00:00:34;;;;;;;0.65;0.65;;;21.30;46.70;;;;;;3854393;23;20025;-91
2021/12/22 00:02:07;;;;;;;1.38;0.80;;;21.30;46.60;;;;;;3856218;23;20076;-92
2021/12/22 00:03:42;;;;;;;1.27;0.80;;;21.30;46.70;;;;;;3854245;23;20026;-91
2021/12/22 00:05:15;;;;;;;0.90;0.70;;;21.30;46.60;;;;;;3855699;23;20019;-92
2021/12/22 00:06:47;;;;;;;1.17;0.70;;;21.30;46.60;;;;;;3855977;23;20027;-91
2021/12/22 00:08:19;;;;;;;0.93;0.80;;;21.20;46.50;;;;;;3855775;23;20036;-91
2021/12/22 00:09:51;;;;;;;1.42;0.70;;;21.20;46.60;;;;;;3853905;23;20394;-92
2021/12/22 00:11:23;;;;;;;0.85;0.65;;;21.20;46.60;;;;;;3855221;23;20020;-92
2021/12/22 00:12:55;;;;;;;0.80;0.73;;;21.20;46.70;;;;;;3856263;23;20031;-92
2021/12/22 00:14:25;;;;;;;1.20;0.82;;;21.20;46.60;;;;;;3855091;23;20027;-91
2021/12/22 00:15:57;;;;;;;0.95;0.70;;;21.20;46.60;;;;;;3854270;23;20382;-91
2021/12/22 00:17:30;;;;;;;1.52;0.80;;;21.20;46.60;;;;;;3855968;23;20020;-91
2021/12/22 00:19:02;;;;;;;1.08;0.88;;;21.20;46.60;;;;;;3854388;23;20021;-92
2021/12/22 00:20:34;;;;;;;0.80;0.70;;;21.20;46.70;;;;;;3855691;23;20017;-92
2021/12/22 00:22:06;;;;;;;1.42;0.82;;;21.20;46.70;;;;;;3855386;23;20447;-93
2021/12/22 00:23:38;;;;;;;0.80;0.70;;;21.20;47.30;;;;;;3855895;22;20074;-91
2021/12/22 00:25:10;;;;;;;0.98;0.70;;;21.20;46.80;;;;;;3858654;23;20013;-92
2021/12/22 00:26:42;;;;;;;0.63;0.63;;;21.20;46.80;;;;;;3857058;23;20103;-92
2021/12/22 00:28:14;;;;;;;1.20;0.57;;;21.10;46.80;;;;;;3855178;23;20017;-91
2021/12/22 00:29:49;;;;;;;1.00;0.80;;;21.10;46.70;;;;;;3854839;23;20735;-92
2021/12/22 00:31:22;;;;;;;0.77;0.70;;;21.10;46.70;;;;;;3854493;22;20166;-92
2021/12/22 00:33:02;;;;;;;0.80;0.65;;;21.10;46.70;;;;;;3855734;23;20099;-93
2021/12/22 00:34:34;;;;;;;1.10;0.80;;;21.10;46.70;;;;;;3853835;23;20107;-92
2021/12/22 00:36:06;;;;;;;1.20;0.80;;;21.10;46.80;;;;;;3855842;23;20108;-91
2021/12/22 00:37:38;;;;;;;1.10;0.85;;;21.10;46.70;;;;;;3855866;23;20333;-92
2021/12/22 00:39:10;;;;;;;1.02;0.63;;;21.10;46.70;;;;;;3854126;22;20107;-92
2021/12/22 00:40:44;;;;;;;1.40;0.70;;;21.10;46.70;;;;;;3855003;23;20016;-91
2021/12/22 00:42:15;;;;;;;1.23;0.80;;;21.10;46.70;;;;;;3855527;23;20024;-91
2021/12/22 00:43:47;;;;;;;0.90;0.68;;;21.10;46.80;;;;;;3853987;23;20383;-91
2021/12/22 00:45:23;;;;;;;1.50;0.98;;;21.10;46.80;;;;;;3854146;23;20040;-92
2021/12/22 00:46:55;;;;;;;1.00;0.80;;;21.10;46.80;;;;;;3855149;23;20051;-92
2021/12/22 00:48:28;;;;;;;1.40;0.98;;;21.10;46.80;;;;;;3854302;23;20020;-92
2021/12/22 00:50:00;;;;;;;1.55;0.70;;;21.10;46.70;;;;;;3855423;23;20021;-92
2021/12/22 00:51:32;;;;;;;1.23;0.60;;;21.10;46.80;;;;;;3855421;23;20052;-92
2021/12/22 00:53:04;;;;;;;0.90;0.70;;;21.10;46.70;;;;;;3855308;23;20787;-92
2021/12/22 00:54:36;;;;;;;1.48;0.77;;;21.10;46.60;;;;;;3854254;23;20024;-91
2021/12/22 00:56:08;;;;;;;0.90;0.80;;;21.10;46.70;;;;;;3855512;23;20452;-91
2021/12/22 00:57:40;;;;;;;1.38;0.90;;;21.10;46.80;;;;;;3855612;23;20031;-92
2021/12/22 00:59:12;;;;;;;1.10;0.90;;;21.10;46.80;;;;;;3853221;23;20025;-92
2021/12/22 01:00:46;;;;;;;0.73;0.70;;;21.10;46.70;;;;;;3855024;23;20024;-92
2021/12/22 01:02:19;;;;;;;1.27;0.88;;;21.10;46.60;;;;;;3855412;23;20020;-93
2021/12/22 01:03:52;;;;;;;1.23;0.60;;;21.10;46.70;;;;;;3855451;23;20518;-93
2021/12/22 01:05:24;;;;;;;1.13;0.70;;;21.10;46.60;;;;;;3855810;23;20668;-93
2021/12/22 01:06:56;;;;;;;1.03;0.80;;;21.10;46.60;;;;;;3856036;23;20024;-92
2021/12/22 01:08:28;;;;;;;0.80;0.70;;;21.10;46.60;;;;;;3856691;23;20730;-92
2021/12/22 01:10:00;;;;;;;1.08;0.90;;;21.10;46.60;;;;;;3856699;23;20021;-93
2021/12/22 01:11:32;;;;;;;1.30;0.80;;;21.10;46.70;;;;;;3856614;23;20067;-92
2021/12/22 01:13:05;;;;;;;1.00;0.80;;;21.10;46.60;;;;;;3857435;23;20016;-92
2021/12/22 01:14:38;;;;;;;1.38;0.88;;;21.10;46.70;;;;;;3855670;23;20370;-91
2021/12/22 01:16:10;;;;;;;1.13;0.70;;;21.10;46.70;;;;;;3855627;23;20083;-93
2021/12/22 01:17:45;;;;;;;0.80;0.70;;;21.10;46.60;;;;;;3856133;23;20455;-93
2021/12/22 01:19:24;;;;;;;0.95;0.70;;;21.10;46.60;;;;;;3855997;23;20079;-93
2021/12/22 01:21:04;;;;;;;2.13;1.05;;;21.00;46.70;;;;;;3856786;23;20051;-92
2021/12/22 01:22:47;;;;;;;0.73;0.70;;;21.00;46.60;;;;;;3856842;23;20017;-93
2021/12/22 01:24:28;;;;;;;1.50;1.00;;;21.00;46.60;;;;;;3855471;23;20355;-91
2021/12/22 01:26:03;;;;;;;0.75;0.70;;;21.00;46.60;;;;;;3856360;23;20013;-91
2021/12/22 01:27:38;;;;;;;0.70;0.70;;;21.00;46.60;;;;;;3856561;23;20025;-90
2021/12/22 01:29:10;;;;;;;0.90;0.80;;;21.00;46.60;;;;;;3856193;23;20025;-90
2021/12/22 01:30:44;;;;;;;1.02;0.80;;;21.00;46.60;;;;;;3854511;23;20463;-89
2021/12/22 01:32:17;;;;;;;0.75;0.70;;;21.00;46.60;;;;;;3856622;23;20021;-90
2021/12/22 01:33:49;;;;;;;1.30;0.90;;;21.00;46.60;;;;;;3855807;23;20452;-91
2021/12/22 01:35:24;;;;;;;1.10;0.70;;;21.00;46.60;;;;;;3855984;23;20024;-91
2021/12/22 07:01:36;;;;;;;7.35;2.50;;;20.30;46.30;;;;;;3856004;22;20017;-87
2021/12/22 07:03:22;;;;;;;;;;;;;;;;;;;;;
2021/12/22 07:04:54;;;;;;;9.88;2.25;;;20.30;46.80;;;;;;3855456;23;20024;-89
2021/12/22 07:06:26;;;;;;;8.80;2.47;;;20.40;47.00;;;;;;3856793;23;20017;-87
2021/12/22 07:07:58;;;;;;;7.90;2.65;;;20.40;46.90;;;;;;3856127;23;20055;-89
2021/12/22 07:09:30;;;;;;;8.43;2.30;;;20.30;47.00;;;;;;3856353;23;20042;-88
2021/12/22 07:11:02;;;;;;;8.57;2.42;;;20.40;47.10;;;;;;3856546;23;20100;-87
2021/12/22 07:12:38;;;;;;;15.75;3.17;;;20.30;47.10;;;;;;3855884;23;20105;-87
2021/12/22 07:14:10;;;;;;;13.32;3.08;;;20.40;47.10;;;;;;3855567;22;20029;-87
2021/12/22 07:15:43;;;;;;;18.52;3.33;;;20.40;47.20;;;;;;3854747;23;20025;-87
2021/12/22 07:17:16;;;;;;;18.38;4.03;;;20.30;47.30;;;;;;3856898;23;20451;-89
2021/12/22 07:18:48;;;;;;;19.55;3.47;;;20.30;47.30;;;;;;3855418;22;20021;-90
2021/12/22 07:20:20;;;;;;;16.03;2.90;;;20.40;48.00;;;;;;3855569;23;20021;-89
2021/12/22 07:21:53;;;;;;;16.93;3.00;;;20.40;47.30;;;;;;3856755;23;20254;-89
2021/12/22 07:23:25;;;;;;;;;;;20.40;47.30;;;;;;3854629;22;20021;-91
2021/12/22 07:24:57;;;;;;;11.82;2.63;;;20.40;48.00;;;;;;3856842;23;19916;-86
2021/12/22 07:26:28;;;;;;;11.90;3.03;;;20.40;47.50;;;;;;3856374;23;20048;-86
2021/12/22 07:28:00;;;;;;;8.63;2.33;;;20.40;47.50;;;;;;3856681;23;20017;-86
2021/12/22 07:29:33;;;;;;;10.88;2.45;;;20.40;47.50;;;;;;3855998;22;20024;-90
2021/12/22 07:31:05;;;;;;;16.27;2.55;;;20.40;47.50;;;;;;3854784;23;20087;-88
2021/12/22 07:32:38;;;;;;;15.23;2.85;;;20.40;47.40;;;;;;3856171;23;20020;-87
2021/12/22 07:34:13;;;;;;;11.88;2.65;;;20.40;47.30;;;;;;3850890;22;20078;-88
2021/12/22 07:35:47;;;;;;;8.75;1.95;;;20.40;47.30;;;;;;3865570;23;20020;-90
2021/12/22 07:37:23;;;;;;;6.78;2.20;;;20.50;47.50;;;;;;3870937;22;20461;-88
2021/12/22 07:38:58;;;;;;;9.93;2.67;;;20.40;47.30;;;;;;3875884;22;20020;-88
2021/12/22 07:40:30;;;;;;;8.98;2.20;;;20.50;49.50;;;;;;3871864;22;20020;-90
2021/12/22 07:42:02;;;;;;;7.47;2.40;;;20.60;49.30;;;;;;3875004;22;20094;-89
2021/12/22 07:43:39;;;;;;;8.90;2.20;;;20.70;49.40;;;;;;3875016;22;20028;-90
2021/12/22 07:45:11;;;;;;;9.32;2.70;;;20.70;47.90;;;;;;3874557;22;20024;-89
2021/12/22 07:46:46;;;;;;;8.35;2.42;;;20.70;47.10;;;;;;3875227;22;20016;-88
2021/12/22 07:48:19;;;;;;;10.23;2.53;;;20.70;46.90;;;;;;3875683;23;20027;-88
2021/12/22 07:49:51;;;;;;;11.40;2.70;;;20.70;47.00;;;;;;3873319;22;20715;-90
2021/12/22 07:51:23;;;;;;;5.28;2.25;;;20.70;46.80;;;;;;3875043;22;20350;-91
2021/12/22 07:52:56;;;;;;;12.73;2.10;;;20.80;46.90;;;;;;3874840;22;20039;-89
2021/12/22 07:54:28;;;;;;;7.47;2.58;;;20.80;47.20;;;;;;3874232;22;20051;-91
2021/12/22 07:56:00;;;;;;;4.38;2.40;;;20.80;47.30;;;;;;3875574;22;20095;-89
2021/12/22 07:57:32;;;;;;;8.77;2.42;;;20.90;47.50;;;;;;3875435;22;20511;-88
2021/12/22 07:59:04;;;;;;;5.32;2.00;;;20.90;47.20;;;;;;3873620;22;20020;-90
2021/12/22 08:00:37;;;;;;;6.90;2.10;;;20.90;47.20;;;;;;3873372;22;20090;-91
2021/12/22 08:02:12;;;;;;;4.78;2.38;;;20.90;47.00;;;;;;3876125;22;20036;-92
2021/12/22 08:03:45;;;;;;;6.85;2.25;;;20.90;46.30;;;;;;3871123;22;20019;-90
2021/12/22 08:05:17;;;;;;;4.38;1.95;;;20.90;46.30;;;;;;3876324;22;20024;-91
2021/12/22 08:06:50;;;;;;;4.75;1.90;;;20.90;46.30;;;;;;3874936;22;20070;-89
2021/12/22 08:08:22;;;;;;;4.32;2.10;;;20.90;46.40;;;;;;3875781;22;20359;-90
2021/12/22 08:09:54;;;;;;;4.75;2.05;;;20.80;46.30;;;;;;3874042;22;20486;-90
2021/12/22 08:11:26;;;;;;;4.85;2.10;;;20.80;46.50;;;;;;3874481;22;20808;-88
2021/12/22 08:12:58;;;;;;;6.25;1.95;;;20.80;46.50;;;;;;3874559;22;20454;-88
2021/12/22 08:14:30;;;;;;;5.70;2.22;;;20.80;46.50;;;;;;3873817;22;20028;-87
2021/12/22 08:16:02;;;;;;;4.20;2.30;;;20.80;46.40;;;;;;3874648;22;20020;-88
2021/12/22 08:17:34;;;;;;;4.72;2.35;;;20.80;46.10;;;;;;3875266;22;20091;-87
2021/12/22 08:19:07;;;;;;;5.22;1.98;;;20.80;46.00;;;;;;3873628;22;20024;-88
2021/12/22 08:20:40;;;;;;;4.72;1.98;;;20.80;46.00;;;;;;3874524;22;20091;-90
2021/12/22 08:22:14;;;;;;;8.45;2.30;;;20.80;45.80;;;;;;3875316;22;20115;-90
2021/12/22 08:23:47;;;;;;;3.45;1.95;;;;;;;;;;3873626;22;20462;-88
2021/12/22 08:25:18;;;;;;;;;;;20.80;45.20;;;;;;3875491;22;20323;-88
2021/12/22 08:26:51;;;;;;;3.47;2.13;;;20.80;45.90;;;;;;3874572;22;19922;-88
2021/12/22 08:28:23;;;;;;;5.70;2.47;;;20.80;45.80;;;;;;3875396;22;20020;-88
2021/12/22 08:29:55;;;;;;;3.40;1.85;;;20.80;45.80;;;;;;3873746;22;20024;-88
2021/12/22 08:31:27;;;;;;;4.70;2.17;;;20.90;45.80;;;;;;3872959;22;20351;-88
2021/12/22 08:33:04;;;;;;;9.88;2.67;;;20.90;45.70;;;;;;3875602;22;20254;-91
2021/12/22 08:34:40;;;;;;;5.85;1.80;;;20.90;45.80;;;;;;3874288;22;20021;-89
2021/12/22 08:39:50;;;;;;;5.10;2.08;;;20.90;46.00;;;;;;3875487;22;20039;-92
2021/12/22 08:41:24;;;;;;;3.30;1.80;;;20.90;45.80;;;;;;3876250;23;20376;-90
2021/12/22 08:42:56;;;;;;;6.70;2.30;;;20.90;45.70;;;;;;3875053;22;20020;-91
2021/12/22 08:44:28;;;;;;;4.80;2.28;;;20.90;45.70;;;;;;3875177;22;20095;-90
2021/12/22 08:46:00;;;;;;;3.67;1.90;;;20.90;45.60;;;;;;3872063;22;20042;-89
2021/12/22 08:47:32;;;;;;;2.50;1.90;;;20.90;45.60;;;;;;3873875;22;20034;-89
2021/12/22 08:49:04;;;;;;;3.58;1.90;;;20.90;45.50;;;;;;3874392;22;20393;-90
2021/12/22 08:50:38;;;;;;;6.43;1.80;;;20.90;45.40;;;;;;3875046;22;20376;-88
2021/12/22 08:52:10;;;;;;;4.35;2.28;;;21.00;46.10;;;;;;3874717;22;20043;-89
2021/12/22 08:53:42;;;;;;;6.03;2.00;;;21.10;46.00;;;;;;3872957;22;20016;-89
2021/12/22 08:55:15;;;;;;;4.20;1.95;;;21.20;46.00;;;;;;3874240;22;20020;-89
2021/12/22 08:56:55;;;;;;;4.53;1.90;;;21.20;45.80;;;;;;3874582;22;20043;-93
2021/12/22 09:01:24;;;;;;;4.45;2.05;;;21.20;45.10;;;;;;3801250;23;20068;-92
2021/12/22 09:05:08;;;;;;;4.25;2.15;;;21.00;45.10;;;;;;3797382;23;20110;-91
2021/12/22 09:06:48;;;;;;;2.30;1.75;;;21.00;45.10;;;;;;3838652;22;20044;-91
2021/12/22 09:08:20;;;;;;;3.88;1.73;;;21.00;45.10;;;;;;3875185;23;20442;-90
2021/12/22 09:09:52;;;;;;;2.53;1.77;;;21.00;45.10;;;;;;3873526;22;20099;-91
2021/12/22 09:11:24;;;;;;;3.15;1.75;;;21.00;45.00;;;;;;3874641;23;20285;-89
2021/12/22 09:12:57;;;;;;;4.55;1.67;;;21.10;45.40;;;;;;3874007;22;20020;-89
2021/12/22 09:14:29;;;;;;;2.55;1.40;;;21.10;45.70;;;;;;3873409;22;20024;-88
2021/12/22 09:16:01;;;;;;;4.70;1.70;;;21.20;46.00;;;;;;3871659;22;20031;-89
2021/12/22 09:17:33;;;;;;;4.03;1.93;;;21.30;47.20;;;;;;3874714;22;20032;-90
2021/12/22 09:19:05;;;;;;;4.10;1.55;;;21.40;47.00;;;;;;3873831;22;20027;-90
2021/12/22 09:20:37;;;;;;;3.58;1.38;;;21.40;46.90;;;;;;3874112;22;20020;-89
2021/12/22 09:22:10;;;;;;;3.38;1.70;;;21.50;47.00;;;;;;3874680;22;20024;-92
2021/12/22 09:23:42;;;;;;;4.60;1.92;;;21.50;47.00;;;;;;3858525;22;20020;-90
2021/12/22 09:25:14;;;;;;;3.65;1.58;;;21.60;47.00;;;;;;3877367;22;20020;-90
2021/12/22 09:26:47;;;;;;;5.20;1.50;;;21.70;47.50;;;;;;3870463;22;20095;-88
2021/12/22 09:28:19;;;;;;;2.53;1.43;;;21.70;47.00;;;;;;3872720;22;20016;-87
2021/12/22 09:29:51;;;;;;;3.20;1.43;;;21.80;47.20;;;;;;3873986;22;20111;-89
2021/12/22 09:31:23;;;;;;;2.43;1.37;;;21.80;47.10;;;;;;3874584;22;20032;-89
2021/12/22 09:32:55;;;;;;;2.00;1.20;;;21.80;47.20;;;;;;3874381;22;20659;-89
2021/12/22 09:34:27;;;;;;;4.00;1.57;;;21.90;47.20;;;;;;3874233;22;20050;-89
2021/12/22 09:35:59;;;;;;;4.15;1.55;;;21.90;46.60;;;;;;3875737;22;20262;-91
2021/12/22 09:37:33;;;;;;;3.63;1.20;;;21.80;46.50;;;;;;3875385;22;20099;-87
2021/12/22 09:39:05;;;;;;;2.53;1.50;;;21.80;46.60;;;;;;3875041;22;20020;-90
2021/12/22 09:40:37;;;;;;;9.77;1.85;;;21.80;46.80;;;;;;3875398;22;20020;-89
2021/12/22 09:42:13;;;;;;;3.70;1.90;;;21.90;48.40;;;;;;3875033;22;20016;-89
2021/12/22 09:43:45;;;;;;;3.05;1.40;;;21.90;47.80;;;;;;3874992;22;20026;-88
2021/12/22 09:45:19;;;;;;;3.13;1.50;;;22.00;47.50;;;;;;3874157;22;20069;-88
2021/12/22 09:46:53;;;;;;;3.92;1.60;;;22.00;47.30;;;;;;3875730;22;20391;-92
2021/12/22 09:48:36;;;;;;;4.25;1.48;;;22.00;46.90;;;;;;3875128;22;20091;-89
2021/12/22 09:50:10;;;;;;;6.82;1.70;;;22.00;47.00;;;;;;3873380;23;20051;-88
2021/12/22 09:53:37;;;;;;;3.72;1.50;;;22.00;47.30;;;;;;3872219;22;20019;-90
2021/12/22 09:55:09;;;;;;;7.68;1.67;;;22.10;47.40;;;;;;3874057;23;20027;-89
2021/12/22 09:56:42;;;;;;;3.58;1.23;;;22.10;47.40;;;;;;3875931;22;20028;-89
2021/12/22 09:58:14;;;;;;;6.25;1.70;;;22.20;49.20;;;;;;3875308;22;20020;-88
2021/12/22 09:59:46;;;;;;;5.82;1.27;;;22.30;48.90;;;;;;3875013;22;20048;-88
2021/12/22 10:01:22;;;;;;;4.28;1.60;;;22.40;48.80;;;;;;3874054;22;20032;-88
2021/12/22 10:02:54;;;;;;;5.20;1.30;;;22.40;48.10;;;;;;3875540;23;20023;-88
2021/12/22 10:04:27;;;;;;;4.78;1.15;;;22.40;47.60;;;;;;3876657;22;20066;-89
2021/12/22 10:08:29;;;;;;;3.42;1.30;;;22.40;47.40;;;;;;3876073;22;20012;-89
2021/12/22 10:10:07;;;;;;;6.97;1.30;;;22.40;47.70;;;;;;3876305;23;20420;-91
2021/12/22 10:11:47;;;;;;;4.15;1.65;;;22.40;48.10;;;;;;3875401;23;20031;-92
2021/12/22 10:13:19;;;;;;;6.47;1.65;;;22.40;47.80;;;;;;3875198;23;20062;-87
2021/12/22 10:14:54;;;;;;;3.47;1.40;;;22.40;47.50;;;;;;3875327;22;20465;-90
2021/12/22 10:16:27;;;;;;;5.95;1.25;;;22.40;47.60;;;;;;3874101;22;20095;-88
2021/12/22 10:17:58;;;;;;;;;;;22.50;47.50;;;;;;3876823;22;20016;-89
2021/12/22 10:19:37;;;;;;;6.85;1.50;;;22.60;48.30;;;;;;3857368;22;19973;-91
2021/12/22 10:21:10;;;;;;;3.28;1.70;;;22.50;47.80;;;;;;3876859;23;20020;-87
2021/12/22 10:22:44;;;;;;;3.83;1.23;;;22.60;48.10;;;;;;3876976;23;20020;-91
2021/12/22 10:24:22;;;;;;;7.13;1.40;;;22.60;47.90;;;;;;3876177;22;20032;-90
2021/12/22 10:26:10;;;;;;;4.05;1.10;;;22.60;47.50;;;;;;3878136;23;20016;-90
2021/12/22 10:27:44;;;;;;;12.63;1.52;;;22.70;48.90;;;;;;3877528;23;20016;-89
2021/12/22 10:29:16;;;;;;;5.57;1.35;;;22.80;48.60;;;;;;3874833;22;20031;-89
2021/12/22 10:30:48;;;;;;;3.50;1.40;;;22.80;48.40;;;;;;3874170;22;20455;-89
2021/12/22 10:32:21;;;;;;;4.00;1.55;;;22.80;48.40;;;;;;3877292;22;20023;-91
2021/12/22 10:34:00;;;;;;;3.30;1.30;;;22.90;48.20;;;;;;3877139;22;20028;-91
2021/12/22 10:35:38;;;;;;;3.33;1.33;;;22.90;48.20;;;;;;3877118;23;20387;-91
2021/12/22 10:37:10;;;;;;;5.53;1.30;;;22.90;48.40;;;;;;3876473;22;20027;-90
2021/12/22 10:38:49;;;;;;;3.10;1.20;;;22.90;48.10;;;;;;3876199;22;20020;-91
2021/12/22 10:40:27;;;;;;;5.93;1.10;;;23.00;48.00;;;;;;3876470;23;20282;-91
2021/12/22 10:42:05;;;;;;;4.10;1.48;;;23.00;47.70;;;;;;3874391;23;20362;-90
2021/12/22 10:43:41;;;;;;;4.13;1.20;;;23.00;47.10;;;;;;3870451;22;20069;-90
2021/12/22 10:45:14;;;;;;;4.20;1.30;;;23.00;47.10;;;;;;3873656;22;20020;-90
2021/12/22 10:46:47;;;;;;;2.00;0.98;;;23.00;47.20;;;;;;3875932;22;20020;-91
2021/12/22 10:50:16;;;;;;;6.20;1.33;;;23.10;47.20;;;;;;3876164;23;20016;-91
2021/12/22 10:52:04;;;;;;;2.63;1.05;;;23.10;48.10;;;;;;3875840;22;20105;-91
2021/12/22 10:53:47;;;;;;;2.30;1.10;;;23.10;48.10;;;;;;3870600;22;20395;-92
2021/12/22 10:55:23;;;;;;;4.60;1.38;;;23.20;48.00;;;;;;3874818;23;20027;-91
2021/12/22 10:56:59;;;;;;;4.20;0.98;;;23.20;47.90;;;;;;3875248;23;20022;-91
2021/12/22 10:59:34;;;;;;;5.03;1.00;;;23.20;47.70;;;;;;3870546;22;20012;-93
2021/12/22 11:01:25;;;;;;;2.67;1.00;;;23.20;47.40;;;;;;3846800;22;20048;-89
2021/12/22 11:03:06;;;;;;;3.40;1.50;;;23.30;47.70;;;;;;3875656;23;20024;-91
2021/12/22 11:04:43;;;;;;;1.38;0.93;;;23.30;48.20;;;;;;3873314;22;20032;-88
2021/12/22 11:06:23;;;;;;;6.47;1.20;;;23.40;47.70;;;;;;3875462;23;20020;-89
2021/12/22 11:07:56;;;;;;;4.75;1.27;;;23.40;47.70;;;;;;3874572;23;20091;-88
2021/12/22 11:09:28;;;;;;;2.78;1.17;;;23.40;48.00;;;;;;3875004;22;20474;-88
2021/12/22 11:11:00;;;;;;;2.40;1.27;;;23.50;47.70;;;;;;3874951;22;20074;-90
2021/12/22 11:13:01;;;;;;;6.90;1.13;;;23.40;47.40;;;;;;3876812;22;20027;-92
2021/12/22 11:14:44;;;;;;;6.18;1.58;;;23.50;48.30;;;;;;3874095;22;20095;-91
2021/12/22 11:16:18;;;;;;;5.10;1.38;;;23.50;48.30;;;;;;3873532;22;20024;-89
2021/12/22 11:17:50;;;;;;;3.15;1.10;;;23.50;48.30;;;;;;3875038;22;20095;-88
2021/12/22 11:19:22;;;;;;;2.45;1.20;;;23.60;48.20;;;;;;3873041;22;20031;-87
2021/12/22 11:21:13;;;;;;;4.10;1.15;;;23.60;48.10;;;;;;3874551;22;20058;-90
2021/12/22 11:22:52;;;;;;;6.50;1.60;;;23.60;47.90;;;;;;3876231;23;20023;-91
2021/12/22 11:24:25;;;;;;;3.22;1.13;;;23.60;47.50;;;;;;3873455;22;20023;-91
2021/12/22 11:26:07;;;;;;;2.33;1.25;;;23.60;47.70;;;;;;3875232;22;20022;-90
2021/12/22 11:27:40;;;;;;;1.88;1.10;;;23.50;47.60;;;;;;3874695;23;20518;-89
2021/12/22 11:29:12;;;;;;;3.80;1.08;;;23.50;47.40;;;;;;3873358;22;20032;-86
2021/12/22 11:30:44;;;;;;;3.25;1.10;;;23.50;47.70;;;;;;3873754;22;20027;-89
2021/12/22 11:32:27;;;;;;;2.13;0.90;;;23.50;47.70;;;;;;3876273;22;20024;-92
2021/12/22 11:34:00;;;;;;;6.30;1.00;;;23.50;47.80;;;;;;3871982;22;20259;-88
2021/12/22 11:35:34;;;;;;;6.38;1.20;;;23.60;47.80;;;;;;3876258;22;20054;-90
2021/12/22 11:37:07;;;;;;;5.88;1.20;;;23.60;47.80;;;;;;3875883;22;20382;-90
2021/12/22 11:38:39;;;;;;;6.80;1.30;;;23.60;47.70;;;;;;3874436;22;20451;-90
2021/12/22 11:40:13;;;;;;;6.85;1.08;;;23.60;47.70;;;;;;3876155;22;20038;-91
2021/12/22 11:41:55;;;;;;;5.97;1.17;;;23.60;48.10;;;;;;3871859;22;20062;-88
2021/12/22 11:43:27;;;;;;;3.15;1.30;;;23.70;47.80;;;;;;3871637;22;20039;-88
2021/12/22 11:45:01;;;;;;;2.35;1.00;;;23.70;47.80;;;;;;3874467;22;20035;-87
2021/12/22 11:46:35;;;;;;;4.85;1.10;;;23.70;47.80;;;;;;3873876;22;20023;-88
2021/12/22 11:48:09;;;;;;;6.82;1.25;;;23.70;47.90;;;;;;3875778;22;20016;-87
2021/12/22 11:49:54;;;;;;;3.20;1.08;;;23.70;47.60;;;;;;3870997;22;20200;-89
2021/12/22 11:51:47;;;;;;;5.13;1.25;;;23.80;47.60;;;;;;3875321;23;20039;-88
2021/12/22 11:53:19;;;;;;;7.93;1.30;;;23.70;47.20;;;;;;3856691;23;20358;-89
2021/12/22 11:55:06;;;;;;;7.28;1.40;;;23.60;46.70;;;;;;3874937;22;20029;-89
2021/12/22 11:56:46;;;;;;;8.02;1.25;;;23.70;47.20;;;;;;3874446;23;20069;-90
2021/12/22 11:58:18;;;;;;;9.73;1.48;;;23.80;47.40;;;;;;3875331;23;20032;-90
2021/12/22 11:59:50;;;;;;;7.70;1.60;;;23.80;47.60;;;;;;3874267;22;20069;-88
2021/12/22 12:01:22;;;;;;;10.48;1.63;;;23.80;48.40;;;;;;3872709;22;20023;-89
2021/12/22 12:03:00;;;;;;;13.40;1.85;;;23.90;49.20;;;;;;3876129;22;20119;-91
2021/12/22 12:04:36;;;;;;;6.97;1.75;;;23.90;48.30;;;;;;3874413;22;20024;-92
2021/12/22 12:06:10;;;;;;;13.32;1.65;;;23.90;47.80;;;;;;3875040;23;20486;-88
2021/12/22 12:10:38;;;;;;;8.38;1.13;;;24.00;48.10;;;;;;3856861;23;20024;-91
2021/12/22 12:12:16;;;;;;;5.93;1.30;;;24.00;48.60;;;;;;3874712;23;20020;-88
2021/12/22 12:13:53;;;;;;;8.50;1.40;;;24.00;48.20;;;;;;3872952;22;20016;-90
2021/12/22 12:21:36;;;;;;;6.45;1.15;;;24.00;48.00;;;;;;3876102;22;20051;-91
2021/12/22 12:21:51;;;;;;;4.75;1.17;;;24.00;47.80;;;;;;3804542;22;20022;-92
2021/12/22 12:23:27;;;;;;;7.75;1.30;;;24.10;48.10;;;;;;3884237;22;20024;-92
2021/12/22 12:25:12;;;;;;;4.85;1.48;;;24.10;48.40;;;;;;3876966;23;20020;-91
2021/12/22 12:26:43;;;;;;;3.70;1.48;;;24.10;48.30;;;;;;3881525;22;20016;-92
2021/12/22 12:28:19;;;;;;;7.80;1.30;;;24.10;48.40;;;;;;3877552;22;20016;-90
2021/12/22 12:30:06;;;;;;;11.93;1.50;;;24.10;48.20;;;;;;3860476;22;20022;-93
2021/12/22 12:31:41;;;;;;;3.50;1.40;;;24.10;48.80;;;;;;3873699;23;20020;-93
2021/12/22 12:34:11;;;;;;;6.97;1.42;;;24.10;48.50;;;;;;3878220;23;20027;-93
2021/12/22 12:36:05;;;;;;;6.78;1.20;;;24.20;48.60;;;;;;3869217;23;20024;-93
2021/12/22 12:38:04;;;;;;;9.60;1.50;;;24.20;48.90;;;;;;3876514;22;20027;-93
2021/12/22 12:39:55;;;;;;;8.75;1.35;;;24.20;48.70;;;;;;3844943;22;20031;-92
2021/12/22 12:42:05;;;;;;;7.97;1.45;;;24.20;48.70;;;;;;3875103;22;20355;-90
2021/12/22 12:43:55;;;;;;;5.97;1.38;;;24.30;48.40;;;;;;3796424;23;20030;-91
2021/12/22 12:46:29;;;;;;;6.35;1.27;;;24.30;48.30;;;;;;3796824;23;20118;-90
2021/12/22 12:48:26;;;;;;;4.57;1.45;;;24.30;48.30;;;;;;3781775;22;20026;-91
2021/12/22 12:50:29;;;;;;;6.72;1.20;;;24.40;49.70;;;;;;3873966;23;20536;-93
2021/12/22 12:52:25;;;;;;;7.05;1.20;;;24.40;49.50;;;;;;3876587;23;20016;-92
2021/12/22 12:54:28;;;;;;;9.70;1.80;;;24.40;48.80;;;;;;3879022;23;20075;-90
2021/12/22 12:56:12;;;;;;;16.98;1.63;;;24.40;48.90;;;;;;3879325;23;20031;-93
2021/12/22 13:04:43;;;;;;;4.47;1.00;;;24.40;47.60;;;;;;3811258;22;20031;-91
2021/12/22 13:06:15;;;;;;;4.65;1.10;;;24.30;47.30;;;;;;3876086;23;20024;-91
2021/12/22 13:07:49;;;;;;;4.80;1.33;;;24.40;47.00;;;;;;3875978;22;20043;-90
2021/12/22 13:09:23;;;;;;;2.78;0.82;;;24.40;46.70;;;;;;3873542;22;20031;-93
2021/12/22 13:11:01;;;;;;;3.88;1.30;;;24.30;46.40;;;;;;3874059;22;20099;-90
2021/12/22 13:12:49;;;;;;;4.07;1.10;;;24.40;46.40;;;;;;3875833;23;20016;-91
2021/12/22 13:16:19;;;;;;;3.90;1.05;;;24.40;46.00;;;;;;3873157;22;20027;-91
2021/12/22 13:17:53;;;;;;;6.30;1.38;;;24.30;45.80;;;;;;3874926;22;20337;-91
2021/12/22 13:19:40;;;;;;;3.28;1.30;;;24.40;45.90;;;;;;3874056;22;20038;-91
2021/12/22 13:21:12;;;;;;;3.55;1.10;;;24.40;45.90;;;;;;3875812;23;20027;-91
2021/12/22 13:22:45;;;;;;;3.10;1.10;;;24.40;45.90;;;;;;3874911;22;20023;-92
2021/12/22 13:24:21;;;;;;;2.20;1.20;;;24.40;45.80;;;;;;3874475;22;20477;-90
2021/12/22 13:25:54;;;;;;;3.03;1.20;;;24.50;45.80;;;;;;3875267;23;20020;-91
2021/12/22 13:27:28;;;;;;;2.15;1.25;;;24.50;45.90;;;;;;3875713;22;20020;-91
2021/12/22 13:29:00;;;;;;;4.95;1.35;;;24.40;45.30;;;;;;3874524;22;20070;-90
2021/12/22 13:30:33;;;;;;;3.40;1.23;;;24.40;45.20;;;;;;3873585;22;20024;-91
2021/12/22 13:32:07;;;;;;;2.92;1.17;;;24.40;45.40;;;;;;3875685;23;20020;-91
2021/12/22 13:33:40;;;;;;;1.65;1.00;;;24.40;45.40;;;;;;3873827;22;20402;-90
2021/12/22 13:35:12;;;;;;;3.15;1.00;;;24.40;45.40;;;;;;3874359;22;20020;-90
2021/12/22 13:44:04;;;;;;;16.00;2.70;;;24.10;44.30;;;;;;3848066;22;20016;-92
2021/12/22 13:45:35;;;;;;;16.90;2.80;;;24.10;44.20;;;;;;3856135;23;20008;-87
2021/12/22 13:47:08;;;;;;;11.35;2.50;;;24.00;45.10;;;;;;3858479;23;20027;-86
2021/12/22 13:48:45;;;;;;;12.07;2.22;;;24.00;44.20;;;;;;3856223;23;20096;-87
2021/12/22 13:50:16;;;;;;;8.30;2.28;;;24.00;43.90;;;;;;3855497;23;20029;-88
2021/12/22 13:51:52;;;;;;;9.38;2.50;;;24.00;43.80;;;;;;3855516;23;20020;-90
2021/12/22 13:56:41;;;;;;;5.97;2.40;;;23.80;43.80;;;;;;3799737;23;20022;-90
2021/12/22 13:58:33;;;;;;;7.40;2.67;;;23.80;44.70;;;;;;3802625;23;20021;-89
2021/12/22 14:00:12;;;;;;;9.30;2.53;;;23.90;43.90;;;;;;3856500;23;20104;-89
2021/12/22 14:01:45;;;;;;;9.13;2.78;;;23.80;43.70;;;;;;3856772;23;20040;-91
2021/12/22 14:03:18;;;;;;;8.30;2.78;;;23.80;43.70;;;;;;3857169;23;20020;-88
2021/12/22 14:06:51;;;;;;;7.43;2.80;;;23.70;43.30;;;;;;3855170;23;20025;-89
2021/12/22 14:08:26;;;;;;;7.13;2.15;;;23.70;43.40;;;;;;3856124;23;20016;-90
2021/12/22 14:09:59;;;;;;;5.53;2.15;;;23.60;43.40;;;;;;3856067;23;20721;-90
2021/12/22 14:11:31;;;;;;;4.90;2.40;;;23.60;43.40;;;;;;3857219;23;20038;-88
2021/12/22 14:13:11;;;;;;;6.97;2.63;;;23.70;43.70;;;;;;3856652;23;20022;-86
2021/12/22 14:14:46;;;;;;;5.97;2.58;;;23.80;43.40;;;;;;3856938;22;20028;-85
2021/12/22 14:16:26;;;;;;;6.70;2.60;;;23.70;43.20;;;;;;3853313;23;20078;-89
2021/12/22 14:17:59;;;;;;;9.18;2.80;;;23.60;43.40;;;;;;3857161;23;20443;-88
2021/12/22 14:19:32;;;;;;;5.65;2.80;;;23.60;43.60;;;;;;3855002;22;20086;-84
2021/12/22 14:21:03;;;;;;;7.68;2.47;;;23.70;43.60;;;;;;3856693;23;20090;-85
2021/12/22 14:22:37;;;;;;;12.73;2.70;;;23.80;43.40;;;;;;3855933;23;20443;-86
2021/12/22 14:24:13;;;;;;;6.40;2.70;;;23.80;43.80;;;;;;3854220;22;20095;-87
2021/12/22 14:25:44;;;;;;;6.50;2.80;;;23.80;43.60;;;;;;3855977;23;20083;-88
2021/12/22 14:27:17;;;;;;;5.72;2.60;;;23.70;43.10;;;;;;3856186;23;20024;-89